createdAt,value
2022-11-27T00:00:58.061Z,2.86
2022-11-27T00:16:00.514Z,2.94
2022-11-27T00:31:03.198Z,2.82
2022-11-27T00:46:05.836Z,2.42
2022-11-27T01:01:08.454Z,2.56
2022-11-27T01:16:10.926Z,2.85
2022-11-27T01:31:13.757Z,2.32
2022-11-27T01:46:16.645Z,2.57
2022-11-27T02:01:19.205Z,2.72
2022-11-27T02:16:21.847Z,2.54
2022-11-27T02:31:24.321Z,2.5
2022-11-27T02:46:26.676Z,2.32
2022-11-27T03:01:29.178Z,2.69
2022-11-27T03:16:32.070Z,2.79
2022-11-27T03:31:34.633Z,3.06
2022-11-27T03:46:37.285Z,3.35
2022-11-27T04:01:40.019Z,2.77
2022-11-27T04:16:42.573Z,2.62
2022-11-27T04:31:45.108Z,3.19
2022-11-27T04:46:47.635Z,2.76
2022-11-27T05:01:50.267Z,2.5
2022-11-27T05:16:52.874Z,2.98
2022-11-27T05:31:55.388Z,2.75
2022-11-27T05:46:58.279Z,2.9
2022-11-27T06:02:00.780Z,3.27
2022-11-27T06:17:03.123Z,2.95
2022-11-27T06:32:05.525Z,3.66
2022-11-27T06:47:08.113Z,3.25
2022-11-27T07:02:10.610Z,3.97
2022-11-27T07:17:13.065Z,4.08
2022-11-27T07:32:15.761Z,3.84
2022-11-27T07:47:18.082Z,3.33
2022-11-27T08:02:20.343Z,3.78
2022-11-27T08:17:22.689Z,3.75
2022-11-27T08:32:25.261Z,3.68
2022-11-27T08:47:27.743Z,3.89
2022-11-27T09:02:30.184Z,4.31
2022-11-27T09:17:33.116Z,3.89
2022-11-27T09:32:35.425Z,3.49
2022-11-27T09:47:41.451Z,3.88
2022-11-27T10:02:45.001Z,3.54
2022-11-27T10:17:47.499Z,3.49
2022-11-27T10:32:56.216Z,4
2022-11-27T10:47:58.848Z,4.15
2022-11-27T11:03:01.375Z,3.97
2022-11-27T11:18:03.917Z,3.89
2022-11-27T11:33:06.617Z,4.1
2022-11-27T11:48:09.317Z,4.2
2022-11-27T12:03:11.785Z,4.12
2022-11-27T12:18:14.498Z,3.64
2022-11-27T12:33:17.254Z,4.05
2022-11-27T12:48:20.310Z,4.16
2022-11-27T13:03:22.852Z,3.52
2022-11-27T13:18:25.574Z,3.99
2022-11-27T13:33:28.106Z,4.07
2022-11-27T13:48:30.458Z,4.56
2022-11-27T14:03:33.222Z,4.3
2022-11-27T14:18:35.721Z,4.34
2022-11-27T14:34:13.687Z,4.35
2022-11-27T14:49:17.725Z,4.65
2022-11-27T15:04:20.685Z,4.37
2022-11-27T15:19:23.132Z,3.94
2022-11-27T15:34:25.524Z,3.99
2022-11-27T15:49:28.134Z,3.51
2022-11-27T16:04:30.795Z,3.81
2022-11-27T16:19:33.315Z,3.91
2022-11-27T16:34:35.872Z,6.19
2022-11-27T16:49:38.259Z,4.91
2022-11-27T17:04:41.103Z,7.47
2022-11-27T17:19:44.092Z,6.72
2022-11-27T17:34:46.832Z,5.48
2022-11-27T17:49:49.382Z,5.62
2022-11-27T18:04:51.735Z,5.14
2022-11-27T18:19:53.987Z,5.42
2022-11-27T18:34:56.258Z,4.84
2022-11-27T18:49:58.537Z,5.41
2022-11-27T19:05:01.546Z,5.03
2022-11-27T19:20:03.846Z,5.53
2022-11-27T19:35:07.424Z,6.3
2022-11-27T19:50:10.002Z,7.17
2022-11-27T20:05:12.215Z,8.17
2022-11-27T20:20:14.448Z,8.48
2022-11-27T20:35:16.663Z,8.97
2022-11-27T20:50:19.135Z,7.23
2022-11-27T21:05:21.411Z,7.31
2022-11-27T21:20:23.680Z,7.54
2022-11-27T21:35:30.234Z,7.98
2022-11-27T21:50:34.110Z,7.66
2022-11-27T22:05:36.372Z,6.61
2022-11-27T22:20:38.819Z,6.6
2022-11-27T22:35:41.045Z,6.24
2022-11-27T22:50:43.319Z,5.74
2022-11-27T23:05:45.691Z,5.68
2022-11-27T23:20:47.992Z,6.2
2022-11-27T23:35:49.996Z,5.93
2022-11-27T23:50:52.652Z,5.21
